sensor_id;sensor_type;location;lat;lon;timestamp;P1;durP1;ratioP1;P2;durP2;ratioP2
12798;SDS011;19250;42.646;26.980;2023-02-28T00:01:32;22.83;;;15.98;;
12798;SDS011;19250;42.646;26.980;2023-02-28T00:04:00;26.15;;;17.10;;
12798;SDS011;19250;42.646;26.980;2023-02-28T00:06:29;28.90;;;19.23;;
12798;SDS011;19250;42.646;26.980;2023-02-28T00:08:56;30.13;;;19.70;;
12798;SDS011;19250;42.646;26.980;2023-02-28T00:11:23;27.55;;;20.27;;
12798;SDS011;19250;42.646;26.980;2023-02-28T00:13:50;27.75;;;19.77;;
12798;SDS011;19250;42.646;26.980;2023-02-28T00:16:18;26.13;;;19.80;;
12798;SDS011;19250;42.646;26.980;2023-02-28T00:18:47;31.15;;;21.75;;
12798;SDS011;19250;42.646;26.980;2023-02-28T00:21:15;32.40;;;22.13;;
12798;SDS011;19250;42.646;26.980;2023-02-28T00:23:44;30.60;;;21.40;;
12798;SDS011;19250;42.646;26.980;2023-02-28T00:26:11;29.92;;;21.45;;
12798;SDS011;19250;42.646;26.980;2023-02-28T00:28:39;28.57;;;21.87;;
12798;SDS011;19250;42.646;26.980;2023-02-28T00:31:06;32.45;;;22.13;;
12798;SDS011;19250;42.646;26.980;2023-02-28T00:33:33;28.45;;;21.23;;
12798;SDS011;19250;42.646;26.980;2023-02-28T00:36:01;30.42;;;22.27;;
12798;SDS011;19250;42.646;26.980;2023-02-28T00:38:30;32.33;;;23.23;;
12798;SDS011;19250;42.646;26.980;2023-02-28T00:40:58;31.63;;;22.52;;
12798;SDS011;19250;42.646;26.980;2023-02-28T00:43:30;29.63;;;23.10;;
12798;SDS011;19250;42.646;26.980;2023-02-28T00:45:58;33.33;;;23.88;;
12798;SDS011;19250;42.646;26.980;2023-02-28T00:48:25;32.78;;;23.80;;
12798;SDS011;19250;42.646;26.980;2023-02-28T00:50:52;33.43;;;24.30;;
12798;SDS011;19250;42.646;26.980;2023-02-28T00:53:20;36.67;;;25.35;;
12798;SDS011;19250;42.646;26.980;2023-02-28T00:55:48;35.25;;;26.25;;
12798;SDS011;19250;42.646;26.980;2023-02-28T00:58:17;37.42;;;27.55;;
12798;SDS011;19250;42.646;26.980;2023-02-28T01:00:44;45.03;;;32.50;;
12798;SDS011;19250;42.646;26.980;2023-02-28T01:03:14;49.15;;;33.20;;
12798;SDS011;19250;42.646;26.980;2023-02-28T01:05:41;48.25;;;33.70;;
12798;SDS011;19250;42.646;26.980;2023-02-28T01:08:09;51.87;;;35.70;;
12798;SDS011;19250;42.646;26.980;2023-02-28T01:10:36;47.22;;;33.53;;
12798;SDS011;19250;42.646;26.980;2023-02-28T01:13:03;51.90;;;33.85;;
12798;SDS011;19250;42.646;26.980;2023-02-28T01:15:32;48.45;;;33.42;;
12798;SDS011;19250;42.646;26.980;2023-02-28T01:17:59;50.42;;;34.25;;
12798;SDS011;19250;42.646;26.980;2023-02-28T01:20:27;45.85;;;32.33;;
12798;SDS011;19250;42.646;26.980;2023-02-28T01:22:54;45.50;;;31.50;;
12798;SDS011;19250;42.646;26.980;2023-02-28T01:25:21;41.72;;;29.95;;
12798;SDS011;19250;42.646;26.980;2023-02-28T01:27:49;51.30;;;34.22;;
12798;SDS011;19250;42.646;26.980;2023-02-28T01:30:16;42.45;;;30.05;;
12798;SDS011;19250;42.646;26.980;2023-02-28T01:32:45;40.17;;;30.35;;
12798;SDS011;19250;42.646;26.980;2023-02-28T01:35:12;36.60;;;28.15;;
12798;SDS011;19250;42.646;26.980;2023-02-28T01:37:39;33.63;;;26.13;;
12798;SDS011;19250;42.646;26.980;2023-02-28T01:40:07;35.60;;;26.23;;
12798;SDS011;19250;42.646;26.980;2023-02-28T01:42:35;32.38;;;23.98;;
12798;SDS011;19250;42.646;26.980;2023-02-28T01:45:04;34.35;;;26.17;;
12798;SDS011;19250;42.646;26.980;2023-02-28T01:47:46;38.13;;;27.23;;
12798;SDS011;19250;42.646;26.980;2023-02-28T01:50:16;33.28;;;24.00;;
12798;SDS011;19250;42.646;26.980;2023-02-28T01:52:47;31.35;;;25.02;;
12798;SDS011;19250;42.646;26.980;2023-02-28T01:55:15;31.42;;;24.75;;
12798;SDS011;19250;42.646;26.980;2023-02-28T01:57:46;28.98;;;22.02;;
12798;SDS011;19250;42.646;26.980;2023-02-28T02:00:18;27.00;;;22.27;;
12798;SDS011;19250;42.646;26.980;2023-02-28T02:02:52;25.98;;;19.98;;
12798;SDS011;19250;42.646;26.980;2023-02-28T02:05:22;26.60;;;20.67;;
12798;SDS011;19250;42.646;26.980;2023-02-28T02:07:51;22.15;;;17.95;;
12798;SDS011;19250;42.646;26.980;2023-02-28T02:10:21;25.08;;;17.30;;
12798;SDS011;19250;42.646;26.980;2023-02-28T02:13:07;23.63;;;18.80;;
12798;SDS011;19250;42.646;26.980;2023-02-28T02:15:44;21.52;;;16.67;;
12798;SDS011;19250;42.646;26.980;2023-02-28T02:18:22;27.58;;;18.00;;
12798;SDS011;19250;42.646;26.980;2023-02-28T02:33:27;23.35;;;17.58;;
12798;SDS011;19250;42.646;26.980;2023-02-28T02:36:17;20.65;;;16.85;;
12798;SDS011;19250;42.646;26.980;2023-02-28T02:38:49;18.90;;;16.13;;
12798;SDS011;19250;42.646;26.980;2023-02-28T02:41:22;20.85;;;16.67;;
12798;SDS011;19250;42.646;26.980;2023-02-28T02:43:56;23.17;;;18.83;;
12798;SDS011;19250;42.646;26.980;2023-02-28T02:46:29;20.07;;;17.50;;
12798;SDS011;19250;42.646;26.980;2023-02-28T02:49:00;29.00;;;21.27;;
12798;SDS011;19250;42.646;26.980;2023-02-28T02:51:33;27.55;;;20.60;;
12798;SDS011;19250;42.646;26.980;2023-02-28T02:54:04;26.55;;;22.05;;
12798;SDS011;19250;42.646;26.980;2023-02-28T02:56:35;27.80;;;23.05;;
12798;SDS011;19250;42.646;26.980;2023-02-28T02:59:06;32.30;;;24.33;;
12798;SDS011;19250;42.646;26.980;2023-02-28T03:01:37;28.77;;;23.63;;
12798;SDS011;19250;42.646;26.980;2023-02-28T03:04:10;24.80;;;20.67;;
12798;SDS011;19250;42.646;26.980;2023-02-28T03:06:41;27.27;;;22.00;;
12798;SDS011;19250;42.646;26.980;2023-02-28T03:09:08;24.10;;;20.20;;
12798;SDS011;19250;42.646;26.980;2023-02-28T03:11:36;22.77;;;19.30;;
12798;SDS011;19250;42.646;26.980;2023-02-28T03:14:08;22.83;;;19.80;;
12798;SDS011;19250;42.646;26.980;2023-02-28T03:16:52;27.88;;;22.58;;
12798;SDS011;19250;42.646;26.980;2023-02-28T03:19:33;27.35;;;22.77;;
12798;SDS011;19250;42.646;26.980;2023-02-28T03:22:13;23.42;;;18.90;;
12798;SDS011;19250;42.646;26.980;2023-02-28T03:24:49;23.38;;;17.65;;
12798;SDS011;19250;42.646;26.980;2023-02-28T03:27:22;21.00;;;17.05;;
12798;SDS011;19250;42.646;26.980;2023-02-28T03:29:54;23.15;;;17.42;;
12798;SDS011;19250;42.646;26.980;2023-02-28T03:32:29;21.70;;;18.67;;
12798;SDS011;19250;42.646;26.980;2023-02-28T03:35:03;19.73;;;17.38;;
12798;SDS011;19250;42.646;26.980;2023-02-28T03:37:37;23.33;;;17.90;;
12798;SDS011;19250;42.646;26.980;2023-02-28T03:40:08;20.00;;;16.73;;
12798;SDS011;19250;42.646;26.980;2023-02-28T03:42:41;19.33;;;16.10;;
12798;SDS011;19250;42.646;26.980;2023-02-28T03:45:12;20.52;;;16.83;;
12798;SDS011;19250;42.646;26.980;2023-02-28T03:47:43;19.13;;;16.48;;
12798;SDS011;19250;42.646;26.980;2023-02-28T03:50:14;19.13;;;16.35;;
12798;SDS011;19250;42.646;26.980;2023-02-28T03:52:49;18.50;;;14.57;;
12798;SDS011;19250;42.646;26.980;2023-02-28T03:55:19;0.80;;;0.80;;
12798;SDS011;19250;42.646;26.980;2023-02-28T03:57:50;0.20;;;0.20;;
12798;SDS011;19250;42.646;26.980;2023-02-28T04:00:25;0.55;;;0.55;;
12798;SDS011;19250;42.646;26.980;2023-02-28T04:02:56;0.50;;;0.50;;
12798;SDS011;19250;42.646;26.980;2023-02-28T04:05:23;0.10;;;0.10;;
12798;SDS011;19250;42.646;26.980;2023-02-28T04:07:53;9.77;;;9.18;;
12798;SDS011;19250;42.646;26.980;2023-02-28T04:10:20;0.15;;;0.15;;
12798;SDS011;19250;42.646;26.980;2023-02-28T04:12:48;0.10;;;0.10;;
12798;SDS011;19250;42.646;26.980;2023-02-28T04:15:15;0.20;;;0.20;;
12798;SDS011;19250;42.646;26.980;2023-02-28T04:17:43;2.72;;;2.63;;
12798;SDS011;19250;42.646;26.980;2023-02-28T04:20:10;0.80;;;0.80;;
12798;SDS011;19250;42.646;26.980;2023-02-28T04:22:38;0.40;;;0.40;;
12798;SDS011;19250;42.646;26.980;2023-02-28T04:25:07;0.30;;;0.30;;
12798;SDS011;19250;42.646;26.980;2023-02-28T04:27:35;0.57;;;0.57;;
12798;SDS011;19250;42.646;26.980;2023-02-28T04:30:02;0.30;;;0.30;;
12798;SDS011;19250;42.646;26.980;2023-02-28T04:32:30;0.20;;;0.20;;
12798;SDS011;19250;42.646;26.980;2023-02-28T04:34:57;2.40;;;1.40;;
12798;SDS011;19250;42.646;26.980;2023-02-28T04:37:24;11.90;;;10.30;;
12798;SDS011;19250;42.646;26.980;2023-02-28T04:39:54;0.10;;;0.10;;
12798;SDS011;19250;42.646;26.980;2023-02-28T04:42:22;0.10;;;0.10;;
12798;SDS011;19250;42.646;26.980;2023-02-28T04:44:50;0.93;;;0.93;;
12798;SDS011;19250;42.646;26.980;2023-02-28T04:47:17;0.10;;;0.10;;
12798;SDS011;19250;42.646;26.980;2023-02-28T04:49:44;0.60;;;0.60;;
12798;SDS011;19250;42.646;26.980;2023-02-28T04:52:12;0.10;;;0.10;;
12798;SDS011;19250;42.646;26.980;2023-02-28T04:54:39;0.63;;;0.63;;
12798;SDS011;19250;42.646;26.980;2023-02-28T04:57:06;0.10;;;0.10;;
12798;SDS011;19250;42.646;26.980;2023-02-28T04:59:35;0.30;;;0.30;;
12798;SDS011;19250;42.646;26.980;2023-02-28T05:02:02;0.80;;;0.60;;
12798;SDS011;19250;42.646;26.980;2023-02-28T05:04:32;0.30;;;0.30;;
12798;SDS011;19250;42.646;26.980;2023-02-28T05:07:00;0.60;;;0.50;;
12798;SDS011;19250;42.646;26.980;2023-02-28T05:09:28;0.60;;;0.60;;
12798;SDS011;19250;42.646;26.980;2023-02-28T05:11:56;0.80;;;0.40;;
12798;SDS011;19250;42.646;26.980;2023-02-28T05:14:23;0.30;;;0.30;;
12798;SDS011;19250;42.646;26.980;2023-02-28T05:16:52;0.10;;;0.10;;
12798;SDS011;19250;42.646;26.980;2023-02-28T05:19:19;0.20;;;0.20;;
12798;SDS011;19250;42.646;26.980;2023-02-28T05:21:49;0.10;;;0.10;;
12798;SDS011;19250;42.646;26.980;2023-02-28T05:24:19;0.10;;;0.10;;
12798;SDS011;19250;42.646;26.980;2023-02-28T05:26:48;0.50;;;0.50;;
12798;SDS011;19250;42.646;26.980;2023-02-28T05:29:17;0.10;;;0.10;;
12798;SDS011;19250;42.646;26.980;2023-02-28T05:31:45;0.57;;;0.57;;
12798;SDS011;19250;42.646;26.980;2023-02-28T05:34:14;0.63;;;0.43;;
12798;SDS011;19250;42.646;26.980;2023-02-28T05:36:42;0.38;;;0.38;;
12798;SDS011;19250;42.646;26.980;2023-02-28T05:39:09;0.30;;;0.30;;
12798;SDS011;19250;42.646;26.980;2023-02-28T05:41:39;0.10;;;0.10;;
12798;SDS011;19250;42.646;26.980;2023-02-28T05:44:07;0.68;;;0.68;;
12798;SDS011;19250;42.646;26.980;2023-02-28T05:46:34;0.10;;;0.10;;
12798;SDS011;19250;42.646;26.980;2023-02-28T05:49:02;0.10;;;0.10;;
12798;SDS011;19250;42.646;26.980;2023-02-28T05:51:31;1.20;;;0.90;;
12798;SDS011;19250;42.646;26.980;2023-02-28T05:53:59;1.42;;;1.42;;
12798;SDS011;19250;42.646;26.980;2023-02-28T05:56:27;0.10;;;0.10;;
12798;SDS011;19250;42.646;26.980;2023-02-28T05:58:55;0.15;;;0.15;;
12798;SDS011;19250;42.646;26.980;2023-02-28T06:01:23;1.60;;;1.45;;
12798;SDS011;19250;42.646;26.980;2023-02-28T06:03:58;1.60;;;1.60;;
12798;SDS011;19250;42.646;26.980;2023-02-28T06:06:26;0.10;;;0.10;;
12798;SDS011;19250;42.646;26.980;2023-02-28T06:08:56;0.20;;;0.20;;
12798;SDS011;19250;42.646;26.980;2023-02-28T06:11:23;0.25;;;0.17;;
12798;SDS011;19250;42.646;26.980;2023-02-28T06:13:53;0.50;;;0.50;;
12798;SDS011;19250;42.646;26.980;2023-02-28T06:16:21;0.20;;;0.20;;
12798;SDS011;19250;42.646;26.980;2023-02-28T06:18:48;0.30;;;0.30;;
12798;SDS011;19250;42.646;26.980;2023-02-28T06:21:15;0.20;;;0.20;;
12798;SDS011;19250;42.646;26.980;2023-02-28T06:23:43;0.40;;;0.40;;
12798;SDS011;19250;42.646;26.980;2023-02-28T06:26:12;4.70;;;4.30;;
12798;SDS011;19250;42.646;26.980;2023-02-28T06:28:39;0.20;;;0.20;;
12798;SDS011;19250;42.646;26.980;2023-02-28T06:31:07;0.10;;;0.10;;
12798;SDS011;19250;42.646;26.980;2023-02-28T06:33:35;0.10;;;0.10;;
12798;SDS011;19250;42.646;26.980;2023-02-28T06:36:02;0.10;;;0.10;;
12798;SDS011;19250;42.646;26.980;2023-02-28T06:38:30;2.70;;;1.35;;
12798;SDS011;19250;42.646;26.980;2023-02-28T06:40:59;0.20;;;0.20;;
12798;SDS011;19250;42.646;26.980;2023-02-28T06:43:29;0.47;;;0.47;;
12798;SDS011;19250;42.646;26.980;2023-02-28T06:45:59;0.10;;;0.10;;
12798;SDS011;19250;42.646;26.980;2023-02-28T06:48:27;0.17;;;0.17;;
12798;SDS011;19250;42.646;26.980;2023-02-28T06:51:00;0.10;;;0.10;;
12798;SDS011;19250;42.646;26.980;2023-02-28T06:53:29;2.10;;;2.10;;
12798;SDS011;19250;42.646;26.980;2023-02-28T06:55:56;14.60;;;9.55;;
12798;SDS011;19250;42.646;26.980;2023-02-28T06:58:23;2.50;;;2.40;;
12798;SDS011;19250;42.646;26.980;2023-02-28T07:00:52;7.77;;;7.27;;
12798;SDS011;19250;42.646;26.980;2023-02-28T07:03:19;3.83;;;3.53;;
12798;SDS011;19250;42.646;26.980;2023-02-28T07:05:47;0.30;;;0.30;;
12798;SDS011;19250;42.646;26.980;2023-02-28T07:08:14;1.30;;;0.85;;
12798;SDS011;19250;42.646;26.980;2023-02-28T07:10:42;0.63;;;0.63;;
12798;SDS011;19250;42.646;26.980;2023-02-28T07:13:09;0.55;;;0.55;;
12798;SDS011;19250;42.646;26.980;2023-02-28T07:15:37;1.70;;;1.70;;
12798;SDS011;19250;42.646;26.980;2023-02-28T07:18:06;3.45;;;3.35;;
12798;SDS011;19250;42.646;26.980;2023-02-28T07:20:33;0.20;;;0.20;;
12798;SDS011;19250;42.646;26.980;2023-02-28T07:23:00;2.20;;;1.63;;
12798;SDS011;19250;42.646;26.980;2023-02-28T07:25:28;0.20;;;0.20;;
12798;SDS011;19250;42.646;26.980;2023-02-28T07:27:55;0.13;;;0.13;;
12798;SDS011;19250;42.646;26.980;2023-02-28T07:30:25;2.13;;;1.98;;
12798;SDS011;19250;42.646;26.980;2023-02-28T07:32:52;0.40;;;0.40;;
12798;SDS011;19250;42.646;26.980;2023-02-28T07:35:22;0.38;;;0.38;;
12798;SDS011;19250;42.646;26.980;2023-02-28T07:37:50;0.10;;;0.10;;
12798;SDS011;19250;42.646;26.980;2023-02-28T07:40:17;0.25;;;0.25;;
12798;SDS011;19250;42.646;26.980;2023-02-28T07:42:45;2.80;;;2.60;;
12798;SDS011;19250;42.646;26.980;2023-02-28T07:45:12;0.10;;;0.10;;
12798;SDS011;19250;42.646;26.980;2023-02-28T07:47:40;4.47;;;2.65;;
12798;SDS011;19250;42.646;26.980;2023-02-28T07:50:10;0.20;;;0.20;;
12798;SDS011;19250;42.646;26.980;2023-02-28T07:52:40;0.60;;;0.60;;
12798;SDS011;19250;42.646;26.980;2023-02-28T07:55:08;0.10;;;0.10;;
12798;SDS011;19250;42.646;26.980;2023-02-28T07:57:36;1.73;;;1.63;;
12798;SDS011;19250;42.646;26.980;2023-02-28T08:00:03;3.40;;;1.10;;
12798;SDS011;19250;42.646;26.980;2023-02-28T08:02:32;0.95;;;0.95;;
12798;SDS011;19250;42.646;26.980;2023-02-28T08:05:00;0.93;;;0.70;;
12798;SDS011;19250;42.646;26.980;2023-02-28T08:07:27;0.13;;;0.13;;
12798;SDS011;19250;42.646;26.980;2023-02-28T08:09:56;0.30;;;0.30;;
12798;SDS011;19250;42.646;26.980;2023-02-28T08:12:23;0.10;;;0.10;;
12798;SDS011;19250;42.646;26.980;2023-02-28T08:14:50;0.10;;;0.10;;
12798;SDS011;19250;42.646;26.980;2023-02-28T08:17:18;0.15;;;0.15;;
12798;SDS011;19250;42.646;26.980;2023-02-28T08:19:45;0.40;;;0.40;;
12798;SDS011;19250;42.646;26.980;2023-02-28T08:22:13;0.35;;;0.35;;
12798;SDS011;19250;42.646;26.980;2023-02-28T08:24:41;0.50;;;0.50;;
12798;SDS011;19250;42.646;26.980;2023-02-28T08:27:10;1.80;;;1.70;;
12798;SDS011;19250;42.646;26.980;2023-02-28T08:29:38;0.50;;;0.50;;
12798;SDS011;19250;42.646;26.980;2023-02-28T08:35:27;0.70;;;0.70;;
12798;SDS011;19250;42.646;26.980;2023-02-28T08:37:54;0.38;;;0.38;;
12798;SDS011;19250;42.646;26.980;2023-02-28T08:40:21;0.30;;;0.30;;
12798;SDS011;19250;42.646;26.980;2023-02-28T08:42:51;0.85;;;0.75;;
12798;SDS011;19250;42.646;26.980;2023-02-28T08:45:18;1.10;;;1.10;;
12798;SDS011;19250;42.646;26.980;2023-02-28T08:47:45;0.20;;;0.20;;
12798;SDS011;19250;42.646;26.980;2023-02-28T08:50:12;0.50;;;0.50;;
12798;SDS011;19250;42.646;26.980;2023-02-28T08:52:41;0.30;;;0.30;;
12798;SDS011;19250;42.646;26.980;2023-02-28T08:55:09;0.10;;;0.10;;
12798;SDS011;19250;42.646;26.980;2023-02-28T08:57:36;0.10;;;0.10;;
12798;SDS011;19250;42.646;26.980;2023-02-28T09:00:06;0.10;;;0.10;;
12798;SDS011;19250;42.646;26.980;2023-02-28T09:02:35;0.10;;;0.10;;
12798;SDS011;19250;42.646;26.980;2023-02-28T09:05:02;0.60;;;0.60;;
12798;SDS011;19250;42.646;26.980;2023-02-28T09:07:30;5.20;;;3.80;;
12798;SDS011;19250;42.646;26.980;2023-02-28T09:09:57;1.60;;;1.50;;
12798;SDS011;19250;42.646;26.980;2023-02-28T09:12:25;0.60;;;0.60;;
12798;SDS011;19250;42.646;26.980;2023-02-28T09:14:54;1.40;;;1.30;;
12798;SDS011;19250;42.646;26.980;2023-02-28T09:17:22;0.20;;;0.20;;
12798;SDS011;19250;42.646;26.980;2023-02-28T09:19:50;0.10;;;0.10;;
12798;SDS011;19250;42.646;26.980;2023-02-28T09:22:17;0.25;;;0.25;;
12798;SDS011;19250;42.646;26.980;2023-02-28T09:24:44;0.20;;;0.20;;
12798;SDS011;19250;42.646;26.980;2023-02-28T09:27:11;0.10;;;0.10;;
12798;SDS011;19250;42.646;26.980;2023-02-28T09:29:39;0.10;;;0.10;;
12798;SDS011;19250;42.646;26.980;2023-02-28T09:32:06;0.47;;;0.47;;
12798;SDS011;19250;42.646;26.980;2023-02-28T09:34:35;31.03;;;28.07;;
12798;SDS011;19250;42.646;26.980;2023-02-28T09:37:02;33.33;;;30.13;;
12798;SDS011;19250;42.646;26.980;2023-02-28T09:39:29;39.05;;;35.33;;
12798;SDS011;19250;42.646;26.980;2023-02-28T09:41:57;35.95;;;32.55;;
12798;SDS011;19250;42.646;26.980;2023-02-28T09:44:26;20.55;;;16.42;;
12798;SDS011;19250;42.646;26.980;2023-02-28T09:46:59;22.80;;;17.67;;
12798;SDS011;19250;42.646;26.980;2023-02-28T09:49:33;23.90;;;17.15;;
12798;SDS011;19250;42.646;26.980;2023-02-28T09:52:06;23.02;;;19.17;;
12798;SDS011;19250;42.646;26.980;2023-02-28T09:54:37;21.00;;;16.42;;
12798;SDS011;19250;42.646;26.980;2023-02-28T09:57:06;30.30;;;22.00;;
12798;SDS011;19250;42.646;26.980;2023-02-28T09:59:42;23.38;;;18.08;;
12798;SDS011;19250;42.646;26.980;2023-02-28T10:05:34;29.33;;;21.98;;
12798;SDS011;19250;42.646;26.980;2023-02-28T10:08:08;36.72;;;25.23;;
12798;SDS011;19250;42.646;26.980;2023-02-28T10:10:41;22.52;;;17.55;;
12798;SDS011;19250;42.646;26.980;2023-02-28T10:13:15;33.15;;;24.20;;
12798;SDS011;19250;42.646;26.980;2023-02-28T10:16:03;28.15;;;20.65;;
12798;SDS011;19250;42.646;26.980;2023-02-28T10:18:38;38.00;;;29.10;;
12798;SDS011;19250;42.646;26.980;2023-02-28T10:21:16;28.67;;;23.38;;
12798;SDS011;19250;42.646;26.980;2023-02-28T10:23:47;35.08;;;27.88;;
12798;SDS011;19250;42.646;26.980;2023-02-28T10:26:16;23.40;;;18.35;;
12798;SDS011;19250;42.646;26.980;2023-02-28T10:28:44;23.50;;;17.73;;
12798;SDS011;19250;42.646;26.980;2023-02-28T10:31:13;42.22;;;36.78;;
12798;SDS011;19250;42.646;26.980;2023-02-28T10:33:44;35.30;;;29.70;;
12798;SDS011;19250;42.646;26.980;2023-02-28T10:36:12;24.17;;;18.83;;
12798;SDS011;19250;42.646;26.980;2023-02-28T10:38:43;24.02;;;19.08;;
12798;SDS011;19250;42.646;26.980;2023-02-28T10:41:12;37.08;;;32.90;;
12798;SDS011;19250;42.646;26.980;2023-02-28T10:43:41;26.10;;;20.33;;
12798;SDS011;19250;42.646;26.980;2023-02-28T10:46:11;26.30;;;21.38;;
12798;SDS011;19250;42.646;26.980;2023-02-28T10:48:57;22.77;;;18.80;;
12798;SDS011;19250;42.646;26.980;2023-02-28T10:51:40;22.20;;;18.90;;
12798;SDS011;19250;42.646;26.980;2023-02-28T10:54:14;24.75;;;20.45;;
12798;SDS011;19250;42.646;26.980;2023-02-28T10:56:43;24.67;;;20.13;;
12798;SDS011;19250;42.646;26.980;2023-02-28T10:59:26;26.70;;;22.48;;
12798;SDS011;19250;42.646;26.980;2023-02-28T11:01:55;27.98;;;22.25;;
12798;SDS011;19250;42.646;26.980;2023-02-28T11:04:33;34.65;;;25.92;;
12798;SDS011;19250;42.646;26.980;2023-02-28T11:07:09;31.75;;;25.90;;
12798;SDS011;19250;42.646;26.980;2023-02-28T11:09:45;41.38;;;37.15;;
12798;SDS011;19250;42.646;26.980;2023-02-28T11:12:19;26.50;;;23.08;;
12798;SDS011;19250;42.646;26.980;2023-02-28T11:14:49;23.20;;;19.40;;
12798;SDS011;19250;42.646;26.980;2023-02-28T11:17:19;29.65;;;21.77;;
12798;SDS011;19250;42.646;26.980;2023-02-28T11:19:50;26.25;;;22.42;;
12798;SDS011;19250;42.646;26.980;2023-02-28T11:22:22;27.33;;;21.05;;
12798;SDS011;19250;42.646;26.980;2023-02-28T11:24:54;24.67;;;20.05;;
12798;SDS011;19250;42.646;26.980;2023-02-28T11:27:25;24.35;;;18.30;;
12798;SDS011;19250;42.646;26.980;2023-02-28T11:30:27;42.47;;;34.10;;
12798;SDS011;19250;42.646;26.980;2023-02-28T11:32:57;40.92;;;29.67;;
12798;SDS011;19250;42.646;26.980;2023-02-28T11:35:26;29.17;;;22.33;;
12798;SDS011;19250;42.646;26.980;2023-02-28T11:37:58;32.53;;;24.03;;
12798;SDS011;19250;42.646;26.980;2023-02-28T11:40:28;34.67;;;24.33;;
12798;SDS011;19250;42.646;26.980;2023-02-28T11:43:06;29.80;;;22.45;;
12798;SDS011;19250;42.646;26.980;2023-02-28T11:45:52;27.10;;;21.48;;
12798;SDS011;19250;42.646;26.980;2023-02-28T11:48:27;33.90;;;25.65;;
12798;SDS011;19250;42.646;26.980;2023-02-28T11:51:05;33.58;;;25.85;;
12798;SDS011;19250;42.646;26.980;2023-02-28T11:53:49;30.63;;;23.67;;
12798;SDS011;19250;42.646;26.980;2023-02-28T11:56:25;26.23;;;20.42;;
12798;SDS011;19250;42.646;26.980;2023-02-28T11:59:10;28.27;;;23.13;;
12798;SDS011;19250;42.646;26.980;2023-02-28T12:02:01;26.55;;;20.42;;
12798;SDS011;19250;42.646;26.980;2023-02-28T12:04:46;39.08;;;31.52;;
12798;SDS011;19250;42.646;26.980;2023-02-28T12:07:22;35.85;;;29.08;;
12798;SDS011;19250;42.646;26.980;2023-02-28T12:10:01;34.75;;;27.10;;
12798;SDS011;19250;42.646;26.980;2023-02-28T12:12:41;31.27;;;23.20;;
12798;SDS011;19250;42.646;26.980;2023-02-28T12:15:27;31.13;;;24.27;;
12798;SDS011;19250;42.646;26.980;2023-02-28T12:18:08;70.53;;;52.38;;
12798;SDS011;19250;42.646;26.980;2023-02-28T12:20:45;30.35;;;23.38;;
12798;SDS011;19250;42.646;26.980;2023-02-28T12:23:31;29.00;;;22.40;;
12798;SDS011;19250;42.646;26.980;2023-02-28T12:26:21;23.93;;;18.73;;
12798;SDS011;19250;42.646;26.980;2023-02-28T12:29:00;22.52;;;17.90;;
12798;SDS011;19250;42.646;26.980;2023-02-28T12:31:36;29.10;;;24.50;;
12798;SDS011;19250;42.646;26.980;2023-02-28T12:34:09;30.83;;;25.10;;
12798;SDS011;19250;42.646;26.980;2023-02-28T12:36:41;87.70;;;68.03;;
12798;SDS011;19250;42.646;26.980;2023-02-28T12:39:13;61.15;;;51.90;;
12798;SDS011;19250;42.646;26.980;2023-02-28T12:41:45;42.65;;;36.17;;
12798;SDS011;19250;42.646;26.980;2023-02-28T12:44:19;29.77;;;25.67;;
12798;SDS011;19250;42.646;26.980;2023-02-28T12:46:50;28.98;;;22.45;;
12798;SDS011;19250;42.646;26.980;2023-02-28T12:49:21;23.33;;;18.40;;
12798;SDS011;19250;42.646;26.980;2023-02-28T12:51:52;28.57;;;20.83;;
12798;SDS011;19250;42.646;26.980;2023-02-28T12:54:22;21.10;;;17.15;;
12798;SDS011;19250;42.646;26.980;2023-02-28T12:56:58;18.63;;;14.95;;
12798;SDS011;19250;42.646;26.980;2023-02-28T12:59:34;22.60;;;18.70;;
12798;SDS011;19250;42.646;26.980;2023-02-28T13:05:43;21.98;;;15.20;;
12798;SDS011;19250;42.646;26.980;2023-02-28T13:11:25;24.15;;;17.98;;
12798;SDS011;19250;42.646;26.980;2023-02-28T13:13:58;26.13;;;19.13;;
12798;SDS011;19250;42.646;26.980;2023-02-28T13:16:28;24.42;;;18.45;;
12798;SDS011;19250;42.646;26.980;2023-02-28T13:19:15;25.17;;;20.30;;
12798;SDS011;19250;42.646;26.980;2023-02-28T13:21:45;28.17;;;23.08;;
12798;SDS011;19250;42.646;26.980;2023-02-28T13:33:24;29.15;;;24.52;;
12798;SDS011;19250;42.646;26.980;2023-02-28T13:36:10;129.52;;;74.28;;
12798;SDS011;19250;42.646;26.980;2023-02-28T13:38:50;25.15;;;21.73;;
12798;SDS011;19250;42.646;26.980;2023-02-28T13:44:11;103.38;;;89.22;;
12798;SDS011;19250;42.646;26.980;2023-02-28T13:49:45;56.08;;;50.33;;
12798;SDS011;19250;42.646;26.980;2023-02-28T13:52:14;67.07;;;60.22;;
12798;SDS011;19250;42.646;26.980;2023-02-28T13:57:50;52.70;;;41.40;;
12798;SDS011;19250;42.646;26.980;2023-02-28T14:00:34;78.22;;;68.57;;
12798;SDS011;19250;42.646;26.980;2023-02-28T14:03:22;48.15;;;42.88;;
12798;SDS011;19250;42.646;26.980;2023-02-28T14:06:10;87.88;;;78.60;;
12798;SDS011;19250;42.646;26.980;2023-02-28T14:08:46;30.43;;;24.03;;
12798;SDS011;19250;42.646;26.980;2023-02-28T14:11:27;47.40;;;42.45;;
12798;SDS011;19250;42.646;26.980;2023-02-28T14:13:56;26.45;;;20.45;;
12798;SDS011;19250;42.646;26.980;2023-02-28T14:16:24;23.98;;;19.25;;
12798;SDS011;19250;42.646;26.980;2023-02-28T14:18:56;20.88;;;17.45;;
12798;SDS011;19250;42.646;26.980;2023-02-28T14:21:27;17.50;;;15.25;;
12798;SDS011;19250;42.646;26.980;2023-02-28T14:24:03;26.07;;;21.87;;
12798;SDS011;19250;42.646;26.980;2023-02-28T14:32:58;24.00;;;17.13;;
12798;SDS011;19250;42.646;26.980;2023-02-28T14:35:40;21.77;;;15.47;;
12798;SDS011;19250;42.646;26.980;2023-02-28T14:38:23;22.60;;;17.33;;
12798;SDS011;19250;42.646;26.980;2023-02-28T14:40:55;23.88;;;18.20;;
12798;SDS011;19250;42.646;26.980;2023-02-28T14:43:25;19.15;;;15.70;;
12798;SDS011;19250;42.646;26.980;2023-02-28T14:45:54;18.55;;;15.85;;
12798;SDS011;19250;42.646;26.980;2023-02-28T14:48:24;21.37;;;17.73;;
12798;SDS011;19250;42.646;26.980;2023-02-28T14:50:53;22.80;;;19.92;;
12798;SDS011;19250;42.646;26.980;2023-02-28T14:53:24;30.23;;;23.30;;
12798;SDS011;19250;42.646;26.980;2023-02-28T14:55:54;24.38;;;20.05;;
12798;SDS011;19250;42.646;26.980;2023-02-28T14:58:22;26.58;;;20.38;;
12798;SDS011;19250;42.646;26.980;2023-02-28T15:04:16;27.35;;;22.15;;
12798;SDS011;19250;42.646;26.980;2023-02-28T15:09:36;25.02;;;19.38;;
12798;SDS011;19250;42.646;26.980;2023-02-28T15:12:04;20.73;;;16.75;;
12798;SDS011;19250;42.646;26.980;2023-02-28T15:14:32;19.20;;;16.75;;
12798;SDS011;19250;42.646;26.980;2023-02-28T15:17:02;24.87;;;20.10;;
12798;SDS011;19250;42.646;26.980;2023-02-28T15:19:36;27.23;;;19.33;;
12798;SDS011;19250;42.646;26.980;2023-02-28T15:22:10;27.23;;;20.80;;
12798;SDS011;19250;42.646;26.980;2023-02-28T15:24:43;21.23;;;17.13;;
12798;SDS011;19250;42.646;26.980;2023-02-28T15:27:15;20.80;;;17.20;;
12798;SDS011;19250;42.646;26.980;2023-02-28T15:29:48;27.17;;;20.08;;
12798;SDS011;19250;42.646;26.980;2023-02-28T15:32:23;18.43;;;15.30;;
12798;SDS011;19250;42.646;26.980;2023-02-28T15:34:53;19.38;;;15.45;;
12798;SDS011;19250;42.646;26.980;2023-02-28T15:37:29;24.45;;;18.35;;